createdAt,value
2023-01-28T00:04:40.961Z,3.20
2023-01-28T00:19:40.047Z,3.40
2023-01-28T00:34:39.870Z,2.90
2023-01-28T00:49:39.886Z,2.90
2023-01-28T01:04:39.575Z,3.20
2023-01-28T01:19:39.463Z,3.50
2023-01-28T01:34:39.259Z,3.90
2023-01-28T01:49:39.107Z,3.90
2023-01-28T02:04:38.985Z,4.50
2023-01-28T02:19:38.805Z,4.50
2023-01-28T02:34:38.652Z,4.30
2023-01-28T02:49:38.572Z,4.50
2023-01-28T03:04:38.347Z,3.90
2023-01-28T03:19:38.195Z,3.60
2023-01-28T03:34:38.058Z,3.40
2023-01-28T03:49:37.892Z,4.20
2023-01-28T04:04:37.747Z,3.50
2023-01-28T04:19:37.643Z,3.40
2023-01-28T04:34:37.450Z,3.30
2023-01-28T04:49:37.294Z,3.20
2023-01-28T05:04:37.153Z,3.20
2023-01-28T05:19:36.999Z,3.30
2023-01-28T05:34:36.854Z,3.10
2023-01-28T05:49:36.714Z,2.80
2023-01-28T06:04:36.564Z,2.60
2023-01-28T06:19:36.417Z,2.50
2023-01-28T06:34:36.332Z,2.80
2023-01-28T06:49:36.110Z,5.70
2023-01-28T07:04:35.969Z,5.80
2023-01-28T07:19:35.841Z,5.10
2023-01-28T07:34:35.667Z,5.80
2023-01-28T07:49:35.523Z,6.10
2023-01-28T08:04:35.488Z,7.60
2023-01-28T08:19:35.240Z,7.80
2023-01-28T08:34:35.083Z,9.00
2023-01-28T08:49:35.670Z,8.60
2023-01-28T09:04:34.793Z,7.90
2023-01-28T09:19:34.660Z,7.80
2023-01-28T09:34:34.539Z,6.60
2023-01-28T09:49:34.378Z,5.90
2023-01-28T10:04:42.341Z,3.90
2023-01-28T10:19:34.299Z,2.30
2023-01-28T10:34:34.054Z,1.10
2023-01-28T10:49:34.367Z,0.80
2023-01-28T11:04:33.793Z,1.00
2023-01-28T11:19:33.495Z,0.60
2023-01-28T11:34:33.361Z,0.80
2023-01-28T11:49:33.216Z,0.50
2023-01-28T12:04:33.203Z,0.70
2023-01-28T12:19:32.923Z,0.60
2023-01-28T12:34:32.787Z,0.60
2023-01-28T12:49:32.679Z,0.70
2023-01-28T13:04:32.575Z,1.30
2023-01-28T13:19:32.759Z,1.30
2023-01-28T13:34:32.207Z,1.30
2023-01-28T13:49:32.082Z,2.40
2023-01-28T14:04:32.056Z,1.50
2023-01-28T14:19:31.788Z,6.30
2023-01-28T14:34:31.627Z,1.40
2023-01-28T14:49:31.487Z,1.80
2023-01-28T15:04:31.764Z,1.20
2023-01-28T15:19:31.261Z,1.50
2023-01-28T15:34:31.061Z,1.60
2023-01-28T15:49:30.945Z,1.10
2023-01-28T16:04:30.851Z,1.80
2023-01-28T16:19:30.605Z,1.80
2023-01-28T16:34:30.471Z,1.90
2023-01-28T16:49:30.324Z,1.90
2023-01-28T17:04:30.206Z,1.60
2023-01-28T17:19:30.066Z,4.20
2023-01-28T17:34:29.894Z,2.30
2023-01-28T17:49:29.746Z,3.20
2023-01-28T18:04:29.577Z,1.90
2023-01-28T18:19:29.492Z,1.50
2023-01-28T18:34:29.303Z,2.00
2023-01-28T18:49:29.174Z,1.70
2023-01-28T19:04:28.986Z,5.50
2023-01-28T19:19:28.875Z,2.10
2023-01-28T19:34:28.775Z,2.40
2023-01-28T19:49:29.106Z,2.30
2023-01-28T20:04:28.606Z,13.00
2023-01-28T20:19:28.463Z,2.60
2023-01-28T20:34:28.766Z,2.90
2023-01-28T20:49:28.413Z,4.70
2023-01-28T21:04:27.884Z,5.40
2023-01-28T21:19:27.754Z,3.60
2023-01-28T21:34:27.675Z,3.20
2023-01-28T21:49:27.349Z,6.00
2023-01-28T22:04:27.247Z,5.60
2023-01-28T22:19:27.053Z,5.40
2023-01-28T22:34:26.950Z,4.90
2023-01-28T22:49:26.766Z,5.30
2023-01-28T23:04:26.604Z,6.50
2023-01-28T23:19:26.423Z,6.10
2023-01-28T23:34:26.289Z,7.30
2023-01-28T23:49:26.143Z,6.60
